Time;durP1;ratioP1;P1;durP2;ratioP2;P2;SDS_P1;SDS_P2;PMS_P1;PMS_P2;Temp;Humidity;BMP_temperature;BMP_pressure;BME280_temperature;BME280_humidity;BME280_pressure;Samples;Min_cycle;Max_cycle;Signal;HPM_P1;HPM_P2
2023/11/16 00:00:12;;;;;;;8.07;2.57;;;7.80;99.90;;;;;;4991305;28;20455;-69
2023/11/16 00:19:28;;;;;;;2.53;1.60;;;7.70;99.90;;;;;;4992213;28;20482;-68
2023/11/16 00:21:53;;;;;;;2.53;1.87;;;7.70;99.90;;;;;;4992768;28;20435;-69
2023/11/16 00:24:19;;;;;;;4.33;2.47;;;7.60;99.90;;;;;;4992672;28;20184;-69
2023/11/16 00:26:45;;;;;;;6.47;2.20;;;7.60;99.90;;;;;;4992451;28;20262;-69
2023/11/16 00:29:12;;;;;;;3.10;2.10;;;7.60;99.90;;;;;;4987257;28;20427;-69
2023/11/16 00:31:38;;;;;;;9.63;2.13;;;7.60;99.90;;;;;;4980942;28;20227;-69
2023/11/16 00:34:03;;;;;;;4.77;2.10;;;7.60;99.90;;;;;;4990679;28;20573;-69
2023/11/16 00:36:29;;;;;;;2.20;2.00;;;7.70;99.90;;;;;;4991988;28;20677;-69
2023/11/16 00:38:58;;;;;;;4.17;3.17;;;7.70;99.90;;;;;;4989868;28;20638;-69
2023/11/16 00:41:24;;;;;;;6.60;2.20;;;7.70;99.90;;;;;;4992590;28;20196;-69
2023/11/16 00:43:50;;;;;;;3.00;2.00;;;7.70;99.90;;;;;;4992551;28;20450;-69
2023/11/16 00:46:16;;;;;;;7.43;2.80;;;7.80;99.90;;;;;;4990598;28;20435;-69
2023/11/16 00:48:42;;;;;;;4.67;2.03;;;7.80;99.90;;;;;;4985323;28;20604;-69
2023/11/16 00:51:11;;;;;;;3.67;2.00;;;7.80;99.90;;;;;;4992994;28;20443;-70
2023/11/16 00:53:42;;;;;;;4.57;1.83;;;7.80;99.90;;;;;;4982914;28;20481;-69
2023/11/16 00:56:11;;;;;;;4.43;2.60;;;7.90;99.90;;;;;;4981562;28;20435;-69
2023/11/16 00:58:38;;;;;;;5.47;2.10;;;7.80;99.90;;;;;;4990323;28;20458;-69
2023/11/16 01:01:05;;;;;;;5.37;1.67;;;7.80;99.90;;;;;;4977485;28;20455;-69
2023/11/16 01:03:30;;;;;;;3.53;2.20;;;7.70;99.90;;;;;;5000645;28;20496;-69
2023/11/16 01:05:56;;;;;;;2.60;2.30;;;7.70;99.90;;;;;;5005088;28;20835;-69
2023/11/16 01:08:22;;;;;;;5.47;1.77;;;7.60;99.90;;;;;;4991188;28;20191;-69
2023/11/16 01:10:49;;;;;;;5.10;2.90;;;7.60;99.90;;;;;;4991589;28;20209;-69
2023/11/16 01:13:23;;;;;;;10.63;1.77;;;7.50;99.90;;;;;;4991050;28;20175;-69
2023/11/16 01:15:50;;;;;;;3.70;1.83;;;7.50;99.90;;;;;;4991397;28;20445;-69
2023/11/16 01:18:16;;;;;;;5.83;2.07;;;7.40;99.90;;;;;;4991533;28;20803;-69
2023/11/16 01:20:42;;;;;;;10.30;2.13;;;7.40;99.90;;;;;;4991446;28;20473;-69
2023/11/16 01:23:16;;;;;;;4.50;2.07;;;7.30;99.90;;;;;;4991843;28;20187;-68
2023/11/16 01:25:51;;;;;;;3.70;2.10;;;7.40;99.90;;;;;;4992096;28;20441;-69
2023/11/16 01:28:17;;;;;;;3.37;2.50;;;7.40;99.90;;;;;;4989237;28;20431;-69
2023/11/16 01:30:44;;;;;;;7.67;2.17;;;7.40;99.90;;;;;;5009676;23;20525;-67
2023/11/16 01:33:11;;;;;;;2.80;1.80;;;7.40;99.90;;;;;;4973030;28;20886;-67
2023/11/16 01:35:40;;;;;;;3.13;1.73;;;7.40;99.90;;;;;;4973135;28;20175;-67
2023/11/16 01:38:06;;;;;;;4.27;1.80;;;7.40;99.90;;;;;;4965560;28;20502;-67
2023/11/16 01:40:33;;;;;;;5.17;1.93;;;7.40;99.90;;;;;;4971657;28;20907;-67
2023/11/16 01:42:59;;;;;;;4.17;2.17;;;7.40;99.90;;;;;;4972481;28;20443;-67
2023/11/16 01:45:32;;;;;;;4.10;2.10;;;7.40;99.90;;;;;;4969793;28;20790;-67
2023/11/16 01:48:08;;;;;;;3.80;2.27;;;7.40;99.90;;;;;;4969793;28;20187;-67
2023/11/16 01:50:36;;;;;;;4.33;2.07;;;7.40;99.90;;;;;;4967384;28;20482;-67
2023/11/16 01:53:13;;;;;;;3.33;2.10;;;7.50;99.90;;;;;;4965277;28;20432;-67
2023/11/16 01:55:44;;;;;;;1.80;1.63;;;7.50;99.90;;;;;;4975998;28;20447;-67
2023/11/16 01:58:10;;;;;;;4.23;2.03;;;7.60;99.90;;;;;;4970015;28;20845;-67
2023/11/16 02:00:37;;;;;;;7.60;1.83;;;7.60;99.90;;;;;;4970206;28;20464;-67
2023/11/16 02:03:04;;;;;;;6.50;1.60;;;7.70;99.90;;;;;;4974280;28;20670;-67
2023/11/16 02:05:34;;;;;;;5.50;2.10;;;7.70;99.90;;;;;;4979654;28;20942;-67
2023/11/16 02:08:02;;;;;;;4.83;2.23;;;7.60;99.90;;;;;;4975747;28;20420;-67
2023/11/16 02:10:32;;;;;;;4.13;1.67;;;7.60;99.90;;;;;;4969400;28;20456;-67
2023/11/16 02:12:59;;;;;;;8.93;2.10;;;7.50;99.90;;;;;;4973638;28;20964;-67
2023/11/16 02:15:27;;;;;;;4.73;2.37;;;7.40;99.90;;;;;;4974746;28;20424;-67
2023/11/16 02:17:53;;;;;;;5.20;2.00;;;7.40;99.90;;;;;;4956691;28;20831;-68
2023/11/16 02:20:25;;;;;;;3.00;1.70;;;7.40;99.90;;;;;;4965151;28;20433;-67
2023/11/16 02:22:54;;;;;;;4.50;2.87;;;7.40;99.90;;;;;;4966062;28;20168;-67
2023/11/16 02:25:22;;;;;;;3.67;1.87;;;7.50;99.90;;;;;;4974933;28;20427;-67
2023/11/16 02:27:48;;;;;;;6.27;2.40;;;7.50;99.90;;;;;;4971635;28;20438;-67
2023/11/16 02:30:14;;;;;;;3.73;1.90;;;7.60;99.90;;;;;;4975455;28;20411;-67
2023/11/16 02:32:40;;;;;;;3.77;2.00;;;7.60;99.90;;;;;;4960895;28;20588;-67
2023/11/16 02:35:06;;;;;;;2.73;1.77;;;7.60;99.90;;;;;;4975734;28;20263;-67
2023/11/16 02:37:31;;;;;;;5.33;2.50;;;7.50;99.90;;;;;;4965558;28;20180;-67
2023/11/16 02:39:58;;;;;;;4.77;2.30;;;7.50;99.90;;;;;;4967587;28;20563;-67
2023/11/16 02:42:25;;;;;;;5.20;2.17;;;7.50;99.90;;;;;;4971567;28;20196;-68
2023/11/16 02:44:52;;;;;;;5.03;2.60;;;7.50;99.90;;;;;;4969709;28;20939;-67
2023/11/16 02:47:17;;;;;;;4.20;1.70;;;7.50;99.90;;;;;;4966491;28;20420;-67
2023/11/16 02:49:43;;;;;;;6.03;1.70;;;7.40;99.90;;;;;;4990939;28;20435;-67
2023/11/16 02:52:12;;;;;;;2.97;2.27;;;7.40;99.90;;;;;;4975466;28;20571;-67
2023/11/16 02:54:38;;;;;;;6.37;2.30;;;7.30;99.90;;;;;;4973699;28;20180;-67
2023/11/16 02:57:06;;;;;;;3.40;1.70;;;7.30;99.90;;;;;;4973289;28;20427;-67
2023/11/16 02:59:33;;;;;;;3.60;1.73;;;7.30;99.90;;;;;;4975682;28;20470;-67
2023/11/16 03:01:59;;;;;;;3.30;2.00;;;7.30;99.90;;;;;;4968092;28;20521;-67
2023/11/16 03:04:24;;;;;;;4.57;2.30;;;7.20;99.90;;;;;;4967001;28;20439;-67
2023/11/16 03:06:51;;;;;;;3.43;1.93;;;7.20;99.90;;;;;;4970472;28;20522;-67
2023/11/16 03:09:17;;;;;;;4.63;2.27;;;7.20;99.90;;;;;;4975664;28;20177;-67
2023/11/16 03:11:43;;;;;;;5.47;2.70;;;7.20;99.90;;;;;;4972748;28;20455;-67
2023/11/16 03:14:09;;;;;;;5.10;2.30;;;7.20;99.90;;;;;;4972913;28;20447;-67
2023/11/16 03:16:44;;;;;;;2.80;1.87;;;7.20;99.90;;;;;;4969016;28;20258;-67
2023/11/16 03:19:09;;;;;;;2.83;1.40;;;7.20;99.90;;;;;;4972929;28;20214;-67
2023/11/16 03:21:36;;;;;;;2.50;2.13;;;7.20;99.90;;;;;;4962814;28;20456;-67
2023/11/16 03:24:01;;;;;;;4.50;2.17;;;7.30;99.90;;;;;;4972069;28;20176;-67
2023/11/16 03:26:27;;;;;;;6.43;1.93;;;7.30;99.90;;;;;;4970761;28;20735;-67
2023/11/16 03:28:53;;;;;;;4.07;2.10;;;7.40;99.90;;;;;;4975267;28;20176;-67
2023/11/16 03:31:19;;;;;;;2.30;2.10;;;7.40;99.90;;;;;;4974065;28;20679;-67
2023/11/16 03:33:44;;;;;;;2.87;2.00;;;7.40;99.90;;;;;;4969166;28;20470;-67
2023/11/16 03:36:10;;;;;;;6.23;2.47;;;7.40;99.90;;;;;;4975087;28;20234;-67
2023/11/16 03:38:36;;;;;;;6.07;3.10;;;7.30;99.90;;;;;;4974203;28;20296;-67
2023/11/16 03:41:01;;;;;;;4.93;2.40;;;7.30;99.90;;;;;;4967649;28;20205;-67
2023/11/16 03:43:27;;;;;;;4.07;1.77;;;7.30;99.90;;;;;;4967757;28;20172;-67
2023/11/16 03:45:52;;;;;;;2.63;1.83;;;7.30;99.90;;;;;;4964908;28;20185;-67
2023/11/16 03:48:18;;;;;;;4.90;2.30;;;7.40;99.90;;;;;;4970134;28;20181;-67
2023/11/16 03:50:44;;;;;;;6.43;2.10;;;7.40;99.90;;;;;;4962988;28;20201;-67
2023/11/16 03:53:10;;;;;;;5.30;2.60;;;7.40;99.90;;;;;;4973261;28;20255;-67
2023/11/16 03:55:36;;;;;;;6.17;2.90;;;7.50;99.90;;;;;;4969466;28;20444;-67
2023/11/16 03:58:01;;;;;;;3.90;2.27;;;7.50;99.90;;;;;;4973654;28;20467;-67
2023/11/16 04:00:27;;;;;;;5.10;2.80;;;7.60;99.90;;;;;;4972282;28;20196;-67
2023/11/16 04:02:58;;;;;;;5.97;2.27;;;7.60;99.90;;;;;;4960605;28;20176;-67
2023/11/16 04:05:24;;;;;;;3.00;2.47;;;7.60;99.90;;;;;;4967403;28;20172;-67
2023/11/16 04:07:49;;;;;;;11.37;2.10;;;7.50;99.90;;;;;;4966869;28;20431;-67
2023/11/16 04:10:15;;;;;;;7.27;2.30;;;7.50;99.90;;;;;;4972147;28;20572;-67
2023/11/16 04:12:41;;;;;;;5.30;2.90;;;7.40;99.90;;;;;;4973136;28;20234;-67
2023/11/16 04:15:13;;;;;;;6.77;2.50;;;7.50;99.90;;;;;;4960077;28;20192;-67
2023/11/16 04:17:38;;;;;;;7.90;1.90;;;7.40;99.90;;;;;;4968858;28;20610;-67
2023/11/16 04:20:07;;;;;;;5.03;2.13;;;7.40;99.90;;;;;;4973957;28;20512;-67
2023/11/16 04:22:37;;;;;;;8.83;2.70;;;7.40;99.90;;;;;;4968682;28;20176;-67
2023/11/16 04:25:08;;;;;;;3.47;2.10;;;7.40;99.90;;;;;;4971961;28;20510;-67
2023/11/16 04:27:33;;;;;;;3.33;2.40;;;7.40;99.90;;;;;;4966391;28;20792;-67
2023/11/16 04:29:59;;;;;;;2.87;2.53;;;7.40;99.90;;;;;;4984826;28;20436;-67
2023/11/16 04:32:26;;;;;;;4.90;3.10;;;7.50;99.90;;;;;;4967662;28;20208;-67
2023/11/16 04:34:52;;;;;;;5.47;2.67;;;7.60;99.90;;;;;;4973695;28;20211;-67
2023/11/16 04:37:19;;;;;;;7.73;2.60;;;7.60;99.90;;;;;;4967233;28;20842;-67
2023/11/16 04:39:44;;;;;;;3.37;2.10;;;7.60;99.90;;;;;;4967135;28;20201;-67
2023/11/16 04:42:10;;;;;;;5.67;2.10;;;7.60;99.90;;;;;;4972069;28;20447;-67
2023/11/16 04:44:35;;;;;;;5.63;2.73;;;7.60;99.90;;;;;;4983916;28;20235;-67
2023/11/16 04:47:02;;;;;;;3.37;2.70;;;7.60;99.90;;;;;;4968965;28;20188;-67
2023/11/16 04:49:27;;;;;;;3.20;2.60;;;7.60;99.90;;;;;;4970723;28;20180;-67
2023/11/16 04:51:53;;;;;;;5.03;3.17;;;7.60;99.90;;;;;;4973633;28;20454;-67
2023/11/16 04:54:19;;;;;;;3.37;2.00;;;7.60;99.90;;;;;;4972172;28;20191;-67
2023/11/16 04:56:44;;;;;;;4.20;2.00;;;7.70;99.90;;;;;;4965823;28;20598;-67
2023/11/16 04:59:10;;;;;;;6.27;3.00;;;7.60;99.90;;;;;;4972684;28;20683;-67
2023/11/16 05:01:35;;;;;;;4.53;2.60;;;7.70;99.90;;;;;;4968142;28;20203;-67
2023/11/16 05:04:02;;;;;;;3.57;2.60;;;7.70;99.90;;;;;;4973526;28;20168;-67
2023/11/16 05:06:27;;;;;;;3.10;2.60;;;7.70;99.90;;;;;;4970014;28;20250;-67
2023/11/16 05:08:53;;;;;;;5.87;2.17;;;7.70;99.90;;;;;;4972469;28;20566;-67
2023/11/16 05:11:22;;;;;;;4.77;2.60;;;7.60;99.90;;;;;;4966635;28;20199;-67
2023/11/16 05:13:49;;;;;;;3.07;2.77;;;7.60;99.90;;;;;;4968651;28;20655;-67
2023/11/16 05:16:16;;;;;;;4.17;2.40;;;7.60;99.90;;;;;;4966533;28;20456;-67
2023/11/16 05:18:43;;;;;;;4.27;2.77;;;7.60;99.90;;;;;;4972099;28;20992;-67
2023/11/16 05:21:08;;;;;;;5.30;2.73;;;7.50;99.90;;;;;;4971714;28;20460;-67
2023/11/16 05:23:35;;;;;;;5.10;2.33;;;7.50;99.90;;;;;;4979596;28;20759;-67
2023/11/16 05:26:00;;;;;;;9.20;3.43;;;7.50;99.90;;;;;;4970994;28;20185;-67
2023/11/16 05:28:26;;;;;;;6.30;2.50;;;7.50;99.90;;;;;;4960124;28;20446;-67
2023/11/16 05:30:51;;;;;;;9.87;2.63;;;7.50;99.90;;;;;;4963329;28;20209;-68
2023/11/16 05:33:18;;;;;;;4.90;2.70;;;7.40;99.90;;;;;;4974900;28;20192;-67
2023/11/16 05:35:44;;;;;;;8.50;2.77;;;7.50;99.90;;;;;;4973199;28;20168;-67
2023/11/16 05:38:10;;;;;;;5.37;2.80;;;7.50;99.90;;;;;;4972746;28;20549;-67
2023/11/16 05:40:35;;;;;;;3.30;2.40;;;7.50;99.90;;;;;;4965757;28;20207;-67
2023/11/16 05:43:03;;;;;;;7.17;2.87;;;7.50;99.90;;;;;;4964566;28;20557;-67
2023/11/16 05:45:29;;;;;;;5.00;2.40;;;7.50;99.90;;;;;;4973792;28;20647;-67
2023/11/16 05:47:56;;;;;;;4.73;2.83;;;7.50;99.90;;;;;;4969199;28;20505;-67
2023/11/16 05:50:24;;;;;;;6.90;2.63;;;7.60;99.90;;;;;;4972762;28;20798;-67
2023/11/16 05:52:50;;;;;;;7.20;3.20;;;7.60;99.90;;;;;;4961791;28;20436;-67
2023/11/16 05:55:17;;;;;;;4.27;2.40;;;7.60;99.90;;;;;;4968270;28;20776;-67
2023/11/16 05:57:44;;;;;;;3.60;1.70;;;7.60;99.90;;;;;;4971981;28;20887;-67
2023/11/16 06:00:11;;;;;;;5.50;1.93;;;7.70;99.90;;;;;;4972816;28;20423;-67
2023/11/16 06:02:37;;;;;;;4.60;2.40;;;7.70;99.90;;;;;;4971168;28;20439;-67
2023/11/16 06:05:04;;;;;;;2.83;2.00;;;7.70;99.90;;;;;;4959223;28;20580;-67
2023/11/16 06:07:29;;;;;;;5.57;2.20;;;7.70;99.90;;;;;;4965127;28;20463;-68
2023/11/16 06:09:55;;;;;;;3.83;1.80;;;7.80;99.90;;;;;;4972135;28;20501;-67
2023/11/16 06:12:22;;;;;;;4.50;2.70;;;7.70;99.90;;;;;;4967988;28;20200;-67
2023/11/16 06:14:52;;;;;;;5.30;2.13;;;7.80;99.90;;;;;;4968048;28;20659;-67
2023/11/16 06:17:18;;;;;;;5.40;2.30;;;7.80;99.90;;;;;;4959493;28;20439;-67
2023/11/16 06:19:43;;;;;;;2.73;2.00;;;7.70;99.90;;;;;;4970169;28;20831;-67
2023/11/16 06:22:10;;;;;;;5.83;2.50;;;7.70;99.90;;;;;;4971805;28;20200;-67
2023/11/16 06:24:35;;;;;;;5.93;2.10;;;7.70;99.90;;;;;;4958779;28;20257;-67
2023/11/16 06:27:01;;;;;;;3.53;2.10;;;7.70;99.90;;;;;;4969151;28;20526;-67
2023/11/16 06:29:26;;;;;;;4.70;3.00;;;7.70;99.90;;;;;;4965596;28;20239;-67
2023/11/16 06:31:52;;;;;;;4.77;2.30;;;7.70;99.90;;;;;;4973949;28;20236;-68
2023/11/16 06:34:18;;;;;;;4.50;2.70;;;7.70;99.90;;;;;;4965468;28;20711;-67
2023/11/16 06:36:43;;;;;;;3.93;2.83;;;7.80;99.90;;;;;;4965621;28;20185;-67
2023/11/16 06:39:09;;;;;;;7.23;3.17;;;7.80;99.90;;;;;;4970615;28;20687;-68
2023/11/16 06:41:35;;;;;;;10.87;2.47;;;7.80;99.90;;;;;;4975901;28;20239;-67
2023/11/16 06:44:05;;;;;;;3.23;2.37;;;7.80;99.90;;;;;;4966806;28;20556;-67
2023/11/16 06:46:33;;;;;;;7.63;3.00;;;7.80;99.90;;;;;;4971321;28;20466;-67
2023/11/16 06:48:59;;;;;;;3.50;2.33;;;7.80;99.90;;;;;;4972472;28;20435;-67
2023/11/16 06:51:25;;;;;;;4.10;2.20;;;7.80;99.90;;;;;;4975536;28;20447;-67
2023/11/16 06:53:51;;;;;;;11.47;7.03;;;7.80;99.90;;;;;;4983099;28;20869;-67
2023/11/16 06:56:17;;;;;;;4.57;2.60;;;7.80;99.90;;;;;;4975150;28;20183;-67
2023/11/16 06:58:42;;;;;;;4.03;2.33;;;7.80;99.90;;;;;;4973247;28;20200;-67
2023/11/16 07:01:08;;;;;;;4.13;3.17;;;7.80;99.90;;;;;;4970168;28;20222;-67
2023/11/16 07:03:33;;;;;;;6.80;2.00;;;7.80;99.90;;;;;;4972702;28;20180;-67
2023/11/16 07:05:59;;;;;;;6.67;2.93;;;7.80;99.90;;;;;;4975159;28;20192;-67
2023/11/16 07:08:25;;;;;;;4.03;2.57;;;7.80;99.90;;;;;;4973935;28;20191;-67
2023/11/16 07:10:50;;;;;;;11.83;4.30;;;7.90;99.90;;;;;;4970738;28;20290;-68
2023/11/16 07:13:17;;;;;;;4.30;2.47;;;7.90;99.90;;;;;;4975406;28;20745;-67
2023/11/16 07:15:50;;;;;;;7.63;3.37;;;7.90;99.90;;;;;;4977596;28;20287;-67
2023/11/16 07:18:19;;;;;;;7.37;3.33;;;7.90;99.90;;;;;;4997913;28;20455;-67
2023/11/16 07:20:45;;;;;;;8.50;4.87;;;8.00;99.90;;;;;;4968239;28;20464;-68
2023/11/16 07:23:11;;;;;;;3.80;2.50;;;8.00;99.90;;;;;;4976480;28;20424;-68
2023/11/16 07:25:37;;;;;;;3.60;2.67;;;8.00;99.90;;;;;;4972785;28;20501;-68
2023/11/16 07:28:04;;;;;;;7.87;2.63;;;8.00;99.90;;;;;;4974721;28;20420;-67
2023/11/16 07:30:30;;;;;;;4.83;2.60;;;8.10;99.90;;;;;;5000025;23;20475;-67
2023/11/16 07:32:58;;;;;;;5.27;2.90;;;8.10;99.90;;;;;;4962965;28;20890;-70
2023/11/16 07:35:23;;;;;;;6.33;3.17;;;8.10;99.90;;;;;;4938350;29;20417;-70
2023/11/16 07:37:49;;;;;;;11.33;2.60;;;8.20;99.90;;;;;;4949287;28;20413;-70
2023/11/16 07:40:17;;;;;;;4.37;2.07;;;8.20;99.90;;;;;;4954793;28;20181;-71
2023/11/16 07:42:44;;;;;;;12.67;4.07;;;8.20;99.90;;;;;;4952220;28;20459;-69
2023/11/16 07:45:11;;;;;;;6.03;2.70;;;8.30;99.90;;;;;;4954811;29;20464;-69
2023/11/16 07:47:44;;;;;;;4.63;2.87;;;8.30;99.90;;;;;;4955087;28;20483;-69
2023/11/16 07:50:12;;;;;;;3.20;2.00;;;8.40;99.90;;;;;;4954031;28;20421;-69
2023/11/16 07:52:44;;;;;;;5.87;3.10;;;8.50;99.90;;;;;;4954862;28;20887;-70
2023/11/16 07:55:18;;;;;;;10.70;2.70;;;8.60;99.90;;;;;;4954282;29;20445;-68
2023/11/16 07:57:48;;;;;;;3.40;2.63;;;8.70;99.90;;;;;;4954005;29;20443;-69
2023/11/16 08:00:30;;;;;;;4.87;3.17;;;8.80;99.90;;;;;;4954213;29;20511;-69
2023/11/16 08:05:44;;;;;;;5.33;3.70;;;8.70;99.90;;;;;;4953724;29;20468;-68
2023/11/16 08:08:14;;;;;;;6.40;3.90;;;8.60;99.90;;;;;;4953755;29;20548;-69
2023/11/16 08:10:40;;;;;;;7.43;4.47;;;8.50;99.90;;;;;;4953458;28;20444;-69
2023/11/16 08:13:06;;;;;;;8.87;3.70;;;8.60;99.90;;;;;;4949350;29;20500;-69
2023/11/16 08:15:32;;;;;;;3.73;2.13;;;8.60;99.90;;;;;;4954743;29;20942;-68
2023/11/16 08:17:58;;;;;;;6.07;3.10;;;8.60;99.90;;;;;;4954624;29;20174;-68
2023/11/16 08:20:24;;;;;;;8.50;4.53;;;8.60;99.90;;;;;;4952761;29;20444;-69
2023/11/16 08:22:51;;;;;;;10.33;4.17;;;8.60;99.90;;;;;;4948499;29;20461;-69
2023/11/16 08:25:23;;;;;;;5.23;3.70;;;8.60;99.90;;;;;;4952517;29;20503;-69
2023/11/16 08:27:51;;;;;;;5.30;2.97;;;8.70;99.90;;;;;;4954019;29;20447;-69
2023/11/16 08:30:17;;;;;;;3.50;2.10;;;8.70;99.90;;;;;;4951382;29;20453;-70
2023/11/16 08:32:44;;;;;;;6.93;3.77;;;8.70;99.90;;;;;;4953487;28;20538;-68
2023/11/16 08:35:16;;;;;;;2.80;2.40;;;8.70;99.90;;;;;;4954332;29;20420;-69
2023/11/16 08:37:42;;;;;;;5.17;2.50;;;8.70;99.90;;;;;;4949975;28;20444;-68
2023/11/16 08:40:09;;;;;;;4.17;2.60;;;8.70;99.90;;;;;;4949985;28;20468;-68
2023/11/16 08:42:43;;;;;;;3.70;1.90;;;8.80;99.90;;;;;;4952329;28;20477;-68
2023/11/16 08:45:24;;;;;;;7.47;2.60;;;8.90;99.90;;;;;;4948551;29;20583;-68
2023/11/16 08:47:59;;;;;;;5.83;2.50;;;9.00;99.90;;;;;;4953754;28;20447;-68
2023/11/16 08:50:25;;;;;;;7.23;2.43;;;9.10;99.90;;;;;;4949480;29;20503;-69
2023/11/16 08:52:51;;;;;;;4.23;2.57;;;9.20;99.90;;;;;;4954078;29;20503;-68
2023/11/16 08:55:23;;;;;;;5.83;3.07;;;9.20;99.90;;;;;;4953834;29;20475;-69
2023/11/16 08:57:50;;;;;;;3.87;2.70;;;9.20;99.90;;;;;;4952519;28;20185;-68
2023/11/16 09:00:30;;;;;;;6.53;3.23;;;9.20;99.90;;;;;;4948444;29;20448;-68
2023/11/16 09:03:01;;;;;;;3.40;2.93;;;9.30;99.90;;;;;;4936808;29;20787;-68
2023/11/16 09:05:31;;;;;;;4.63;2.67;;;9.20;99.90;;;;;;4943493;28;20460;-69
2023/11/16 09:07:59;;;;;;;4.63;2.63;;;9.20;99.90;;;;;;4949965;28;20447;-68
2023/11/16 09:10:25;;;;;;;7.17;2.80;;;9.20;99.90;;;;;;4943465;29;20939;-68
2023/11/16 09:12:53;;;;;;;7.83;3.40;;;9.40;99.90;;;;;;4949969;28;20448;-68
2023/11/16 09:15:20;;;;;;;3.70;2.40;;;9.40;99.90;;;;;;4952630;29;20555;-68
2023/11/16 09:17:46;;;;;;;6.13;2.60;;;9.50;99.90;;;;;;4952038;28;20787;-68
2023/11/16 09:20:13;;;;;;;4.43;2.30;;;9.50;99.90;;;;;;4949142;29;20468;-68
2023/11/16 09:22:40;;;;;;;6.23;2.50;;;9.50;99.90;;;;;;4952917;28;20488;-69
2023/11/16 09:25:07;;;;;;;7.67;2.70;;;9.50;99.90;;;;;;4954248;28;20444;-68
2023/11/16 09:27:38;;;;;;;4.53;2.30;;;9.40;99.90;;;;;;4944486;29;20449;-68
2023/11/16 09:30:05;;;;;;;5.63;2.37;;;9.40;99.90;;;;;;4950845;29;20436;-69
2023/11/16 09:32:34;;;;;;;2.47;2.13;;;9.40;99.90;;;;;;4953539;28;20547;-68
2023/11/16 09:34:59;;;;;;;4.37;2.30;;;9.40;99.90;;;;;;4950931;29;20448;-68
2023/11/16 09:37:31;;;;;;;4.20;2.33;;;9.40;99.90;;;;;;4946884;29;20452;-69
2023/11/16 09:39:56;;;;;;;11.03;2.73;;;9.40;99.90;;;;;;4949657;29;20209;-68
2023/11/16 09:42:27;;;;;;;6.07;2.53;;;9.50;99.90;;;;;;4953047;28;20483;-69
2023/11/16 09:45:00;;;;;;;4.90;3.20;;;9.50;99.90;;;;;;4952592;29;20231;-69
2023/11/16 09:47:29;;;;;;;4.70;2.57;;;9.40;99.90;;;;;;4950680;29;20818;-69
2023/11/16 09:49:56;;;;;;;9.13;3.40;;;9.40;99.90;;;;;;4953224;28;20436;-69
2023/11/16 09:52:44;;;;;;;3.17;2.37;;;9.40;99.90;;;;;;4953044;28;20463;-69
2023/11/16 09:55:11;;;;;;;7.00;2.53;;;9.40;99.90;;;;;;4950819;28;20451;-69
2023/11/16 09:57:42;;;;;;;4.53;2.33;;;9.40;99.90;;;;;;4947778;29;20448;-69
2023/11/16 10:00:18;;;;;;;3.73;2.20;;;9.40;99.90;;;;;;4953275;29;20468;-69
2023/11/16 10:02:46;;;;;;;5.53;2.67;;;9.40;99.90;;;;;;4953541;28;20815;-69
2023/11/16 10:05:26;;;;;;;7.63;2.70;;;9.40;99.90;;;;;;4952296;29;21011;-69
2023/11/16 10:07:56;;;;;;;5.70;2.47;;;9.40;99.90;;;;;;4946118;29;20480;-69
2023/11/16 10:10:29;;;;;;;8.23;2.50;;;9.40;99.90;;;;;;4949057;29;20445;-69
2023/11/16 10:12:56;;;;;;;11.10;2.57;;;9.40;99.90;;;;;;4953306;28;20420;-69
2023/11/16 10:15:22;;;;;;;3.03;2.43;;;9.30;99.90;;;;;;4949147;29;20451;-69
2023/11/16 10:17:48;;;;;;;3.63;2.30;;;9.30;99.90;;;;;;4956111;29;20432;-69
2023/11/16 10:20:16;;;;;;;4.20;2.57;;;9.30;99.90;;;;;;4952351;28;20548;-70
2023/11/16 10:22:44;;;;;;;5.40;2.93;;;9.30;99.90;;;;;;4955877;28;20456;-69
2023/11/16 10:25:14;;;;;;;4.00;2.10;;;9.30;99.90;;;;;;4947939;28;20432;-69
2023/11/16 10:27:43;;;;;;;5.63;2.07;;;9.30;99.90;;;;;;4954980;29;20491;-69
2023/11/16 10:30:14;;;;;;;2.47;2.27;;;9.30;99.90;;;;;;4951503;28;20447;-69
2023/11/16 10:32:46;;;;;;;6.20;2.80;;;9.30;99.90;;;;;;4956690;28;20811;-69
2023/11/16 10:35:13;;;;;;;4.63;2.30;;;9.40;99.90;;;;;;4949759;29;20523;-68
2023/11/16 10:37:41;;;;;;;5.57;2.57;;;9.40;99.90;;;;;;4955935;28;20424;-69
2023/11/16 10:40:11;;;;;;;3.23;2.17;;;9.40;99.90;;;;;;4954843;29;20476;-69
2023/11/16 10:42:45;;;;;;;6.00;2.53;;;9.40;99.90;;;;;;4961370;28;20468;-68
2023/11/16 10:45:14;;;;;;;3.67;2.40;;;9.40;99.90;;;;;;4955952;29;20436;-69
2023/11/16 10:47:44;;;;;;;4.60;3.10;;;9.40;99.90;;;;;;4956326;29;20459;-69
2023/11/16 10:50:15;;;;;;;5.87;2.63;;;9.50;99.90;;;;;;4951022;29;20449;-70
2023/11/16 10:52:45;;;;;;;4.87;2.57;;;9.50;99.90;;;;;;4951876;28;20527;-69
2023/11/16 10:55:30;;;;;;;4.17;2.33;;;9.40;99.90;;;;;;4954528;29;20535;-68
2023/11/16 10:58:02;;;;;;;6.47;3.33;;;9.50;99.90;;;;;;4956050;29;20467;-69
2023/11/16 11:00:29;;;;;;;5.30;2.80;;;9.60;99.90;;;;;;4954538;28;20449;-69
2023/11/16 11:02:56;;;;;;;13.00;4.63;;;9.70;99.90;;;;;;4955719;28;20440;-68
2023/11/16 11:05:22;;;;;;;3.67;2.10;;;9.70;99.90;;;;;;4948428;29;20803;-69
2023/11/16 11:07:48;;;;;;;7.20;2.87;;;9.70;99.90;;;;;;4956242;29;20421;-69
2023/11/16 11:10:15;;;;;;;6.33;2.60;;;9.60;99.90;;;;;;4953469;29;20197;-68
2023/11/16 11:12:47;;;;;;;5.27;2.53;;;9.50;99.90;;;;;;4953774;28;20464;-69
2023/11/16 11:15:34;;;;;;;7.70;3.43;;;9.50;99.90;;;;;;4956046;29;20443;-69
2023/11/16 11:18:00;;;;;;;7.10;2.50;;;9.50;99.90;;;;;;4957972;28;20882;-68
2023/11/16 11:20:44;;;;;;;3.90;2.70;;;9.60;99.90;;;;;;4956379;28;20447;-67
2023/11/16 11:23:13;;;;;;;6.53;2.73;;;9.80;99.90;;;;;;4955818;29;20436;-66
2023/11/16 11:26:03;;;;;;;4.53;2.20;;;10.10;99.90;;;;;;4939176;28;20433;-67
2023/11/16 11:28:30;;;;;;;5.30;3.73;;;10.40;99.90;;;;;;4951138;28;20449;-65
2023/11/16 11:30:59;;;;;;;62.87;31.07;;;10.60;99.90;;;;;;4945683;28;20492;-67
2023/11/16 11:33:37;;;;;;;30.03;17.43;;;10.70;99.90;;;;;;4948227;29;20437;-66
2023/11/16 11:36:09;;;;;;;24.77;13.80;;;10.80;99.90;;;;;;4945926;29;20443;-66
2023/11/16 11:38:39;;;;;;;4.80;2.77;;;10.70;99.90;;;;;;4952368;28;20502;-66
2023/11/16 11:41:09;;;;;;;7.00;2.80;;;10.60;99.90;;;;;;4947795;28;20543;-67
2023/11/16 11:43:38;;;;;;;4.13;2.60;;;10.40;99.90;;;;;;4954654;29;20935;-67
2023/11/16 11:46:17;;;;;;;6.70;3.60;;;10.50;99.90;;;;;;4955353;29;20503;-67
2023/11/16 11:48:44;;;;;;;5.77;2.70;;;10.30;99.90;;;;;;4952669;28;20555;-66
2023/11/16 11:51:16;;;;;;;13.83;4.43;;;10.20;99.90;;;;;;4946681;29;20855;-67
2023/11/16 11:53:45;;;;;;;7.33;4.87;;;10.20;99.90;;;;;;4950723;29;20494;-66
2023/11/16 11:56:12;;;;;;;6.87;4.07;;;10.20;99.90;;;;;;4954962;29;20487;-66
2023/11/16 11:58:41;;;;;;;5.60;3.67;;;10.30;99.90;;;;;;4954631;29;20489;-66
2023/11/16 12:01:14;;;;;;;8.90;6.03;;;10.30;99.90;;;;;;4950242;29;20460;-66
2023/11/16 12:04:00;;;;;;;11.23;6.23;;;10.50;99.90;;;;;;4953472;29;21203;-66
2023/11/16 12:06:30;;;;;;;7.10;5.10;;;10.40;99.90;;;;;;4955283;28;20514;-66
2023/11/16 12:08:55;;;;;;;10.07;6.67;;;10.40;99.90;;;;;;4954663;29;20508;-66
2023/11/16 12:11:25;;;;;;;6.33;5.67;;;10.30;99.90;;;;;;4951705;29;20567;-66
2023/11/16 12:13:54;;;;;;;8.90;7.17;;;10.30;99.90;;;;;;4951771;29;20280;-66
2023/11/16 12:16:21;;;;;;;12.20;7.57;;;10.30;99.90;;;;;;4952078;29;20487;-66
2023/11/16 12:18:48;;;;;;;11.90;5.80;;;10.20;99.90;;;;;;4950326;29;20464;-66
2023/11/16 12:21:18;;;;;;;9.00;6.57;;;10.30;99.90;;;;;;4937883;28;20540;-66
2023/11/16 12:23:47;;;;;;;10.43;6.27;;;10.30;99.90;;;;;;4958179;28;21055;-66
2023/11/16 12:26:16;;;;;;;10.63;7.00;;;10.20;99.90;;;;;;4953464;29;20448;-66
2023/11/16 12:28:41;;;;;;;7.17;5.63;;;10.10;99.90;;;;;;4957008;28;20479;-66
2023/11/16 12:31:07;;;;;;;13.20;7.67;;;10.00;99.90;;;;;;4953603;28;21137;-66
2023/11/16 12:33:33;;;;;;;12.30;6.40;;;10.10;99.90;;;;;;4946992;29;20263;-66
2023/11/16 12:36:02;;;;;;;8.40;5.70;;;10.10;99.90;;;;;;4952617;28;20452;-66
2023/11/16 12:38:27;;;;;;;7.77;6.57;;;10.00;99.90;;;;;;4948623;29;20546;-66
2023/11/16 12:40:53;;;;;;;7.80;5.93;;;10.10;99.90;;;;;;4954091;28;20452;-66
2023/11/16 12:43:20;;;;;;;9.23;5.87;;;10.10;99.90;;;;;;4936422;29;20182;-67
2023/11/16 12:45:46;;;;;;;6.90;5.87;;;10.00;99.90;;;;;;4954003;28;20594;-66
2023/11/16 12:48:12;;;;;;;7.70;6.40;;;9.90;99.90;;;;;;4958399;28;20441;-66
2023/11/16 12:50:39;;;;;;;8.67;5.60;;;9.80;99.90;;;;;;4953700;28;20431;-66
2023/11/16 12:53:08;;;;;;;9.97;5.60;;;9.80;99.90;;;;;;4953628;28;20192;-66
2023/11/16 12:55:34;;;;;;;7.00;6.07;;;9.70;99.90;;;;;;4950080;28;20452;-66
2023/11/16 12:58:00;;;;;;;10.00;6.50;;;9.70;99.90;;;;;;4952023;28;20444;-66
2023/11/16 13:00:25;;;;;;;11.60;6.03;;;9.80;99.90;;;;;;4947925;29;20483;-66
2023/11/16 13:02:51;;;;;;;13.13;8.00;;;9.70;99.90;;;;;;4945450;28;20201;-66
2023/11/16 13:05:17;;;;;;;11.70;6.97;;;9.80;99.90;;;;;;4952652;29;20189;-66
2023/11/16 13:07:42;;;;;;;8.10;6.30;;;9.60;99.90;;;;;;4953114;28;20239;-66
2023/11/16 13:10:09;;;;;;;7.13;6.43;;;9.50;99.90;;;;;;4953925;29;20432;-66
2023/11/16 13:12:34;;;;;;;10.90;7.10;;;9.40;99.90;;;;;;4953084;29;20205;-66
2023/11/16 13:15:00;;;;;;;9.03;5.80;;;9.30;99.90;;;;;;4943375;29;20452;-65
2023/11/16 13:17:26;;;;;;;8.77;6.40;;;9.30;99.90;;;;;;4950184;28;20204;-66